Time;durP1;ratioP1;P1;durP2;ratioP2;P2;SDS_P1;SDS_P2;PMS_P1;PMS_P2;Temp;Humidity;BMP_temperature;BMP_pressure;BME280_temperature;BME280_humidity;BME280_pressure;Samples;Min_cycle;Max_cycle;Signal;HPM_P1;HPM_P2
2021/05/17 00:00:39;;;;;;;0.93;0.60;;;16.70;56.50;;;;;;5003216;28;20448;-42
2021/05/17 00:03:07;;;;;;;0.80;0.80;;;16.70;56.90;;;;;;5009385;28;20449;-43
2021/05/17 00:05:33;;;;;;;1.00;0.90;;;16.60;57.00;;;;;;4998958;28;20198;-42
2021/05/17 00:07:59;;;;;;;3.13;0.80;;;16.70;57.20;;;;;;4998085;28;20441;-42
2021/05/17 00:10:27;;;;;;;1.00;0.90;;;16.80;57.00;;;;;;5004546;28;20645;-42
2021/05/17 00:12:53;;;;;;;0.90;0.80;;;16.70;56.60;;;;;;5011565;28;20190;-44
2021/05/17 00:15:19;;;;;;;0.80;0.70;;;16.70;56.60;;;;;;5009849;28;20503;-41
2021/05/17 00:17:47;;;;;;;0.93;0.80;;;16.70;56.50;;;;;;5011993;28;20530;-41
2021/05/17 00:20:14;;;;;;;0.80;0.80;;;16.30;56.40;;;;;;5011989;28;20453;-42
2021/05/17 00:22:40;;;;;;;1.37;0.80;;;16.20;57.00;;;;;;5010652;28;20441;-42
2021/05/17 00:25:06;;;;;;;0.60;0.60;;;16.20;56.90;;;;;;5009658;28;20440;-44
2021/05/17 00:27:32;;;;;;;1.37;0.90;;;16.30;57.10;;;;;;5007962;28;20476;-42
2021/05/17 00:29:58;;;;;;;1.23;0.60;;;16.40;56.70;;;;;;5008311;28;20483;-43
2021/05/17 00:32:24;;;;;;;1.27;0.70;;;16.20;56.40;;;;;;5011010;28;20433;-42
2021/05/17 00:34:50;;;;;;;3.63;0.80;;;16.40;56.70;;;;;;5008347;28;20650;-41
2021/05/17 00:37:15;;;;;;;0.80;0.80;;;16.30;56.50;;;;;;5008430;28;20332;-43
2021/05/17 00:39:42;;;;;;;0.70;0.70;;;16.10;56.80;;;;;;5011429;28;20238;-43
2021/05/17 00:42:09;;;;;;;1.33;1.10;;;16.00;56.70;;;;;;5011294;28;20251;-41
2021/05/17 00:44:39;;;;;;;1.10;0.70;;;15.80;57.00;;;;;;5010374;28;20916;-41
2021/05/17 00:47:11;;;;;;;1.70;0.80;;;15.80;57.10;;;;;;5012022;28;20495;-43
2021/05/17 00:49:38;;;;;;;0.60;0.60;;;15.60;57.30;;;;;;5009192;28;20840;-42
2021/05/17 00:52:04;;;;;;;2.80;0.60;;;15.60;57.90;;;;;;4996375;28;20943;-41
2021/05/17 00:54:30;;;;;;;1.33;0.70;;;15.70;57.70;;;;;;5011791;28;20467;-42
2021/05/17 00:56:56;;;;;;;0.60;0.60;;;15.80;57.20;;;;;;5005936;28;20492;-41
2021/05/17 00:59:21;;;;;;;0.80;0.70;;;15.60;57.30;;;;;;5008443;28;21650;-41
2021/05/17 01:01:47;;;;;;;1.20;1.10;;;15.70;57.40;;;;;;5009834;28;20206;-41
2021/05/17 01:04:13;;;;;;;1.07;0.70;;;15.70;57.30;;;;;;5006097;28;20269;-42
2021/05/17 01:06:40;;;;;;;1.77;0.67;;;15.70;57.40;;;;;;5009488;28;20233;-42
2021/05/17 01:09:11;;;;;;;3.17;0.70;;;15.60;57.60;;;;;;5010004;28;20198;-42
2021/05/17 01:11:36;;;;;;;2.10;0.70;;;15.40;57.70;;;;;;5009249;28;22157;-43
2021/05/17 01:14:08;;;;;;;0.80;0.80;;;15.40;57.70;;;;;;5005070;28;20441;-41
2021/05/17 01:16:34;;;;;;;1.17;0.80;;;15.30;57.90;;;;;;5006955;28;20697;-43
2021/05/17 01:19:00;;;;;;;1.30;0.70;;;15.40;58.00;;;;;;5010255;28;20436;-41
2021/05/17 01:21:32;;;;;;;2.20;0.80;;;15.50;57.70;;;;;;5003434;28;20972;-42
2021/05/17 01:23:58;;;;;;;0.70;0.60;;;15.60;57.70;;;;;;5006005;28;20465;-43
2021/05/17 01:26:28;;;;;;;0.93;0.70;;;15.70;57.30;;;;;;5009047;28;20526;-41
2021/05/17 01:29:06;;;;;;;0.80;0.80;;;15.50;57.50;;;;;;5008677;28;20202;-41
2021/05/17 01:31:34;;;;;;;0.60;0.60;;;15.40;57.80;;;;;;5009886;28;20814;-41
2021/05/17 01:34:00;;;;;;;0.60;0.60;;;15.50;57.90;;;;;;5006261;28;20796;-42
2021/05/17 01:36:26;;;;;;;1.37;0.70;;;15.60;57.80;;;;;;5008280;28;20532;-42
2021/05/17 01:38:53;;;;;;;0.70;0.70;;;15.50;58.00;;;;;;5004678;28;20558;-41
2021/05/17 01:41:21;;;;;;;2.33;0.90;;;15.40;58.10;;;;;;5010523;28;20445;-41
2021/05/17 01:43:51;;;;;;;1.43;0.73;;;15.30;58.20;;;;;;5002709;28;20449;-42
2021/05/17 01:46:19;;;;;;;1.53;0.87;;;15.30;58.70;;;;;;5006872;28;21047;-41
2021/05/17 01:48:46;;;;;;;1.23;0.70;;;15.20;58.60;;;;;;5006863;28;20449;-43
2021/05/17 01:51:18;;;;;;;1.97;0.70;;;15.30;58.70;;;;;;5010706;28;20452;-43
2021/05/17 01:53:45;;;;;;;1.53;0.90;;;15.20;58.50;;;;;;5004830;28;20449;-41
2021/05/17 01:56:13;;;;;;;1.00;0.70;;;15.40;58.40;;;;;;5010111;28;20536;-42
2021/05/17 01:58:39;;;;;;;1.30;0.80;;;15.40;58.50;;;;;;5000343;28;20500;-43
2021/05/17 02:01:08;;;;;;;0.90;0.60;;;15.50;58.40;;;;;;5009050;28;20881;-41
2021/05/17 02:03:36;;;;;;;1.60;0.80;;;15.60;57.90;;;;;;5000141;28;20198;-41
2021/05/17 02:06:02;;;;;;;1.00;0.90;;;15.60;57.80;;;;;;5010123;28;20445;-43
2021/05/17 02:08:31;;;;;;;1.50;0.90;;;15.80;57.60;;;;;;5006345;28;20444;-42
2021/05/17 02:10:57;;;;;;;1.73;0.83;;;15.90;57.30;;;;;;5011850;28;20796;-42
2021/05/17 02:13:25;;;;;;;1.43;0.80;;;15.90;57.00;;;;;;5007586;28;20532;-42
2021/05/17 02:15:51;;;;;;;1.10;0.67;;;15.90;57.00;;;;;;5010265;28;20458;-42
2021/05/17 02:18:17;;;;;;;0.70;0.70;;;15.80;57.10;;;;;;5009990;28;20489;-42
2021/05/17 02:20:45;;;;;;;1.80;0.90;;;15.90;57.00;;;;;;5008507;28;20654;-41
2021/05/17 02:23:13;;;;;;;1.73;1.63;;;16.00;56.60;;;;;;5010760;28;20453;-45
2021/05/17 02:25:44;;;;;;;0.83;0.80;;;16.10;56.30;;;;;;5011825;28;20503;-41
2021/05/17 02:28:11;;;;;;;1.10;0.83;;;16.10;56.10;;;;;;5007244;28;20452;-42
2021/05/17 02:30:38;;;;;;;3.40;0.80;;;16.20;56.20;;;;;;5004867;28;20531;-44
2021/05/17 02:33:05;;;;;;;2.43;0.80;;;16.20;55.90;;;;;;5011453;28;20555;-43
2021/05/17 02:35:31;;;;;;;2.97;0.73;;;16.20;55.90;;;;;;5000332;28;20526;-42
2021/05/17 02:37:57;;;;;;;0.70;0.70;;;16.30;55.80;;;;;;5000575;28;20575;-42
2021/05/17 02:40:23;;;;;;;1.43;0.97;;;16.10;55.70;;;;;;5009029;28;20583;-41
2021/05/17 02:42:50;;;;;;;1.13;1.07;;;15.90;55.80;;;;;;5006605;28;20460;-41
2021/05/17 02:45:18;;;;;;;1.13;0.70;;;15.90;56.40;;;;;;5009278;28;20448;-41
2021/05/17 02:47:44;;;;;;;1.43;0.93;;;15.80;56.50;;;;;;4998464;28;20445;-41
2021/05/17 02:50:12;;;;;;;1.33;0.60;;;15.60;56.60;;;;;;5005726;28;20446;-41
2021/05/17 02:52:38;;;;;;;1.30;0.73;;;15.40;57.10;;;;;;5003967;28;20445;-42
2021/05/17 02:55:15;;;;;;;0.77;0.70;;;15.50;57.10;;;;;;4999673;28;20556;-42
2021/05/17 02:57:49;;;;;;;2.07;0.90;;;15.50;56.80;;;;;;5006355;28;20946;-42
2021/05/17 03:00:19;;;;;;;1.43;0.73;;;15.60;56.80;;;;;;5009157;28;20443;-41
2021/05/17 03:03:17;;;;;;;1.43;0.80;;;15.60;56.70;;;;;;5006459;28;20448;-41
2021/05/17 03:05:44;;;;;;;1.80;1.33;;;15.60;56.70;;;;;;4979639;28;20458;-41
2021/05/17 03:08:15;;;;;;;1.57;0.70;;;15.60;56.70;;;;;;5000637;28;20452;-41
2021/05/17 03:10:45;;;;;;;0.80;0.63;;;15.70;56.40;;;;;;5008789;28;20555;-43
2021/05/17 03:13:17;;;;;;;1.60;0.73;;;15.80;56.30;;;;;;5004334;28;20473;-43
2021/05/17 03:15:44;;;;;;;1.73;0.70;;;15.80;56.00;;;;;;5005971;28;20445;-43
2021/05/17 03:18:10;;;;;;;1.77;0.80;;;15.70;56.00;;;;;;5010020;28;20980;-43
2021/05/17 03:20:37;;;;;;;0.77;0.60;;;15.70;56.10;;;;;;5004996;28;20440;-42
2021/05/17 03:23:11;;;;;;;0.97;0.80;;;15.70;56.10;;;;;;5008013;28;20437;-42
2021/05/17 03:25:38;;;;;;;1.80;0.77;;;15.60;56.20;;;;;;5001329;28;20828;-44
2021/05/17 03:28:04;;;;;;;0.90;0.60;;;15.60;56.20;;;;;;5001456;28;20499;-44
2021/05/17 03:30:29;;;;;;;2.30;0.90;;;15.50;56.20;;;;;;5010241;28;20913;-44
2021/05/17 03:32:55;;;;;;;0.90;0.60;;;15.40;56.40;;;;;;5009515;28;20456;-43
2021/05/17 03:35:20;;;;;;;0.60;0.60;;;15.40;56.50;;;;;;5004976;28;20197;-43
2021/05/17 03:37:47;;;;;;;1.90;0.70;;;15.30;56.60;;;;;;5001720;28;20744;-45
2021/05/17 03:40:14;;;;;;;1.63;0.60;;;15.40;56.70;;;;;;5002734;28;20646;-42
2021/05/17 03:42:40;;;;;;;1.73;0.77;;;15.40;56.50;;;;;;5005227;28;20483;-42
2021/05/17 03:45:08;;;;;;;1.23;0.60;;;15.50;56.50;;;;;;5009632;28;20510;-44
2021/05/17 03:47:34;;;;;;;0.97;0.70;;;15.40;56.30;;;;;;4995392;28;20881;-43
2021/05/17 03:50:00;;;;;;;0.70;0.70;;;15.30;56.80;;;;;;5007944;28;20472;-45
2021/05/17 03:52:26;;;;;;;0.70;0.50;;;15.30;56.80;;;;;;5006438;28;20281;-43
2021/05/17 03:54:52;;;;;;;0.70;0.60;;;15.30;56.80;;;;;;5014642;28;20515;-43
2021/05/17 03:57:17;;;;;;;1.30;0.70;;;15.10;57.00;;;;;;5006495;28;20229;-42
2021/05/17 03:59:45;;;;;;;0.83;0.80;;;14.90;57.50;;;;;;5013296;28;20813;-43
2021/05/17 04:02:19;;;;;;;0.70;0.70;;;14.90;57.60;;;;;;5012458;28;20201;-42
2021/05/17 04:15:37;;;;;;;0.70;0.60;;;15.40;56.60;;;;;;5004324;28;20492;-43
2021/05/17 04:18:02;;;;;;;1.47;0.90;;;15.40;56.80;;;;;;5008984;28;20488;-43
2021/05/17 04:20:28;;;;;;;2.07;0.70;;;15.40;56.70;;;;;;5013605;28;20209;-44
2021/05/17 04:22:53;;;;;;;1.07;0.70;;;15.30;56.70;;;;;;5011595;28;20201;-42
2021/05/17 04:25:19;;;;;;;0.80;0.60;;;15.20;57.00;;;;;;5009121;28;20222;-43
2021/05/17 04:27:45;;;;;;;1.43;0.70;;;15.00;57.60;;;;;;5005736;28;20575;-43
2021/05/17 04:30:11;;;;;;;0.83;0.60;;;15.00;57.80;;;;;;5006868;28;20551;-42
2021/05/17 04:32:36;;;;;;;0.90;0.60;;;15.00;57.70;;;;;;5008283;28;20199;-43
2021/05/17 04:35:03;;;;;;;0.60;0.60;;;15.00;57.60;;;;;;5003137;28;20453;-42
2021/05/17 04:37:28;;;;;;;1.47;0.83;;;15.10;57.70;;;;;;5007830;28;20792;-42
2021/05/17 04:39:54;;;;;;;1.07;0.70;;;15.10;57.20;;;;;;5012810;28;20543;-42
2021/05/17 04:42:20;;;;;;;0.63;0.63;;;15.10;57.50;;;;;;5010698;28;20662;-44
2021/05/17 04:44:45;;;;;;;3.80;0.93;;;15.20;57.30;;;;;;5011462;28;20194;-43
2021/05/17 04:47:11;;;;;;;0.83;0.60;;;15.30;57.30;;;;;;5011662;28;20678;-45
2021/05/17 04:49:36;;;;;;;1.00;0.83;;;15.40;57.10;;;;;;5012302;28;20556;-43
2021/05/17 04:52:02;;;;;;;0.67;0.67;;;15.30;57.00;;;;;;5010407;28;20244;-42
2021/05/17 04:54:28;;;;;;;1.13;0.50;;;15.20;57.30;;;;;;5009461;28;20205;-44
2021/05/17 04:56:53;;;;;;;2.00;0.90;;;15.10;57.30;;;;;;5011578;28;20217;-42
2021/05/17 04:59:19;;;;;;;0.57;0.57;;;14.90;57.80;;;;;;5007999;28;20594;-43
2021/05/17 05:01:44;;;;;;;1.23;0.80;;;14.70;57.80;;;;;;5011313;28;20194;-42
2021/05/17 05:04:10;;;;;;;0.70;0.60;;;14.70;58.10;;;;;;5007696;28;20217;-44
2021/05/17 05:06:36;;;;;;;1.10;0.63;;;14.80;58.30;;;;;;5001898;28;20276;-43
2021/05/17 05:09:01;;;;;;;0.83;0.60;;;14.80;57.60;;;;;;5010060;28;20186;-44
2021/05/17 05:11:27;;;;;;;0.70;0.60;;;14.60;57.80;;;;;;5008157;28;20205;-42
2021/05/17 05:13:52;;;;;;;1.63;1.00;;;14.70;58.40;;;;;;5001648;28;20224;-41
2021/05/17 05:16:18;;;;;;;0.83;0.60;;;14.90;58.00;;;;;;5006128;28;20273;-42
2021/05/17 05:18:44;;;;;;;6.30;0.77;;;15.00;57.60;;;;;;5004321;28;20229;-43
2021/05/17 05:21:09;;;;;;;1.43;1.03;;;15.10;57.50;;;;;;5005765;28;20206;-41
2021/05/17 05:23:35;;;;;;;0.80;0.67;;;15.00;57.10;;;;;;5010017;28;20587;-41
2021/05/17 05:31:27;;;;;;;0.90;0.70;;;15.00;56.60;;;;;;4965549;28;20219;-42
2021/05/17 05:33:52;;;;;;;2.00;0.70;;;14.90;56.90;;;;;;5007388;28;21097;-43
2021/05/17 05:36:18;;;;;;;0.80;0.53;;;14.90;56.80;;;;;;5011253;28;20487;-42
2021/05/17 05:38:43;;;;;;;1.13;0.60;;;14.80;56.60;;;;;;5008555;28;20265;-42
2021/05/17 05:41:09;;;;;;;1.27;0.50;;;15.00;56.60;;;;;;5009285;28;20206;-43
2021/05/17 05:43:35;;;;;;;1.33;0.77;;;15.00;55.80;;;;;;5008859;28;20198;-42
2021/05/17 05:46:00;;;;;;;1.93;0.60;;;15.00;55.80;;;;;;5008138;28;20272;-42
2021/05/17 05:48:26;;;;;;;0.90;0.60;;;15.00;55.30;;;;;;5003329;28;20222;-44
2021/05/17 05:50:52;;;;;;;4.00;0.87;;;14.90;55.30;;;;;;5007975;28;20219;-42
2021/05/17 05:53:18;;;;;;;1.00;0.70;;;14.80;55.70;;;;;;5010051;28;21009;-42
2021/05/17 05:55:45;;;;;;;2.50;0.53;;;14.80;56.00;;;;;;5002342;28;20437;-43
2021/05/17 05:58:11;;;;;;;1.10;0.60;;;15.00;55.30;;;;;;5010661;28;20484;-42
2021/05/17 06:00:37;;;;;;;1.00;0.83;;;15.00;55.00;;;;;;5012042;28;20440;-43
2021/05/17 06:03:05;;;;;;;1.30;0.70;;;15.00;54.90;;;;;;5008516;28;20519;-43
2021/05/17 06:05:30;;;;;;;1.73;0.70;;;15.20;54.50;;;;;;5008984;28;20520;-42
2021/05/17 06:08:00;;;;;;;1.40;0.80;;;15.30;54.20;;;;;;5002202;28;20536;-42
2021/05/17 06:10:26;;;;;;;1.27;0.60;;;15.30;53.80;;;;;;5011833;28;20245;-42
2021/05/17 06:12:52;;;;;;;1.47;0.77;;;15.40;53.90;;;;;;5007278;28;20480;-41
2021/05/17 06:15:19;;;;;;;13.33;1.10;;;15.30;53.70;;;;;;5011147;28;20440;-42
2021/05/17 06:17:46;;;;;;;0.97;0.60;;;15.20;54.00;;;;;;5007648;28;20604;-42
2021/05/17 06:20:13;;;;;;;0.60;0.50;;;15.20;54.10;;;;;;5010628;28;20441;-42
2021/05/17 06:22:39;;;;;;;0.90;0.60;;;15.10;54.10;;;;;;5009476;28;20444;-42
2021/05/17 06:25:08;;;;;;;0.60;0.60;;;15.10;55.00;;;;;;5012788;28;20480;-42
2021/05/17 06:27:34;;;;;;;0.50;0.50;;;15.40;54.10;;;;;;5012057;28;20445;-42
2021/05/17 06:29:59;;;;;;;0.80;0.60;;;15.20;54.10;;;;;;5010581;28;20829;-42
2021/05/17 06:32:27;;;;;;;0.77;0.77;;;15.50;54.40;;;;;;5007249;28;20437;-43
2021/05/17 06:34:53;;;;;;;1.10;0.90;;;15.60;53.60;;;;;;5009285;28;20198;-43
2021/05/17 06:37:19;;;;;;;0.60;0.50;;;15.60;53.20;;;;;;5007080;28;20898;-44
2021/05/17 06:39:44;;;;;;;1.33;0.80;;;15.40;53.40;;;;;;5007830;28;20241;-43
2021/05/17 06:42:11;;;;;;;0.83;0.80;;;15.50;53.50;;;;;;5010468;28;20227;-42
2021/05/17 06:44:37;;;;;;;2.60;0.67;;;15.50;53.50;;;;;;5001163;28;20213;-43
2021/05/17 06:47:04;;;;;;;0.77;0.53;;;15.40;53.70;;;;;;5003827;28;20900;-42
2021/05/17 06:49:31;;;;;;;1.20;0.70;;;15.30;53.80;;;;;;4991961;28;20442;-43
2021/05/17 06:51:57;;;;;;;1.03;0.60;;;15.50;54.30;;;;;;5008498;28;20469;-41
2021/05/17 06:54:28;;;;;;;1.43;0.70;;;15.70;53.90;;;;;;4997510;28;21188;-41
2021/05/17 06:59:42;;;;;;;1.43;0.73;;;15.60;53.20;;;;;;5007647;28;20440;-42
2021/05/17 07:02:24;;;;;;;0.90;0.53;;;15.60;53.80;;;;;;5006257;28;20433;-42
2021/05/17 07:04:50;;;;;;;1.03;0.50;;;15.80;53.40;;;;;;5001053;28;20484;-45
2021/05/17 07:07:33;;;;;;;0.60;0.60;;;15.60;53.40;;;;;;5009564;28;20528;-45
2021/05/17 07:12:43;;;;;;;1.07;0.67;;;15.40;54.10;;;;;;5006765;28;20441;-43
2021/05/17 07:15:09;;;;;;;1.07;0.57;;;15.40;54.50;;;;;;5013488;28;20436;-42
2021/05/17 07:17:35;;;;;;;0.60;0.50;;;15.70;54.20;;;;;;5001867;28;20230;-42
2021/05/17 07:20:01;;;;;;;1.13;0.53;;;15.70;53.40;;;;;;5006945;28;20491;-42
2021/05/17 07:25:12;;;;;;;1.70;0.50;;;15.90;52.50;;;;;;5004734;28;20557;-42
2021/05/17 07:27:38;;;;;;;0.80;0.50;;;15.80;52.60;;;;;;5003065;28;20448;-43
2021/05/17 07:30:04;;;;;;;2.10;0.60;;;15.90;52.90;;;;;;5006574;28;20444;-43
2021/05/17 07:32:30;;;;;;;1.47;0.60;;;16.00;52.60;;;;;;5009771;28;20232;-43
2021/05/17 07:34:56;;;;;;;1.20;0.50;;;15.90;52.60;;;;;;5009852;28;20882;-42
2021/05/17 07:37:21;;;;;;;0.87;0.50;;;16.20;52.80;;;;;;5009296;28;20225;-42
2021/05/17 07:39:47;;;;;;;1.23;0.67;;;16.20;52.70;;;;;;5005159;28;20316;-45
2021/05/17 07:42:13;;;;;;;0.83;0.67;;;16.00;52.60;;;;;;5007633;28;20495;-42
2021/05/17 07:44:38;;;;;;;1.17;0.60;;;16.00;52.40;;;;;;4998674;28;20194;-42
2021/05/17 07:47:04;;;;;;;1.07;0.60;;;16.00;52.80;;;;;;5004375;28;20198;-42
2021/05/17 07:49:38;;;;;;;2.30;0.80;;;15.90;52.80;;;;;;5003433;28;20216;-42
2021/05/17 07:52:04;;;;;;;0.90;0.90;;;15.90;52.60;;;;;;5008627;28;20263;-43
2021/05/17 07:54:30;;;;;;;0.93;0.70;;;16.10;52.90;;;;;;5007684;28;20768;-42
2021/05/17 07:56:56;;;;;;;2.50;1.07;;;16.30;52.40;;;;;;5008426;28;20568;-42
2021/05/17 07:59:24;;;;;;;1.20;1.10;;;16.60;52.10;;;;;;5002043;28;20420;-42
2021/05/17 08:01:53;;;;;;;1.10;0.63;;;16.80;51.50;;;;;;5004666;28;20194;-42
2021/05/17 08:04:19;;;;;;;2.87;0.70;;;16.90;50.90;;;;;;5003046;28;20495;-43
2021/05/17 08:06:44;;;;;;;2.40;0.70;;;16.70;50.60;;;;;;5001223;28;20437;-42
2021/05/17 08:09:10;;;;;;;0.77;0.63;;;16.60;50.50;;;;;;5006496;28;20472;-43
2021/05/17 08:11:35;;;;;;;3.33;0.90;;;16.70;50.90;;;;;;5007863;28;20201;-43
2021/05/17 08:14:02;;;;;;;3.43;0.97;;;16.90;50.70;;;;;;5005103;28;20224;-43
2021/05/17 08:16:29;;;;;;;1.87;0.77;;;16.90;50.20;;;;;;5006175;28;20198;-44
2021/05/17 08:18:55;;;;;;;1.83;0.80;;;16.90;50.40;;;;;;5005675;28;20484;-45
2021/05/17 08:21:21;;;;;;;1.70;1.00;;;17.00;50.40;;;;;;5002244;28;20453;-46
2021/05/17 08:23:47;;;;;;;1.67;0.60;;;17.10;50.00;;;;;;5007979;28;20293;-44
2021/05/17 08:26:12;;;;;;;3.30;0.93;;;17.10;48.90;;;;;;5002339;28;20885;-43
2021/05/17 08:28:41;;;;;;;1.83;0.70;;;17.00;48.20;;;;;;5010571;28;20600;-43
2021/05/17 08:31:08;;;;;;;1.57;0.70;;;16.70;48.30;;;;;;5013580;28;20221;-43
2021/05/17 08:33:33;;;;;;;0.90;0.60;;;16.70;49.10;;;;;;5012848;28;20444;-44
2021/05/17 08:36:00;;;;;;;0.90;0.60;;;16.80;48.90;;;;;;5013438;28;20502;-43
2021/05/17 08:38:26;;;;;;;2.30;1.10;;;17.10;49.50;;;;;;5011115;28;20685;-43
2021/05/17 08:40:52;;;;;;;0.80;0.70;;;17.20;48.50;;;;;;5008619;28;20461;-43
2021/05/17 08:43:18;;;;;;;0.87;0.83;;;17.40;48.20;;;;;;5012943;28;21237;-45
2021/05/17 08:45:45;;;;;;;1.40;1.00;;;17.60;48.30;;;;;;5007720;28;20232;-43
2021/05/17 08:48:11;;;;;;;3.47;1.13;;;17.60;47.80;;;;;;5010538;28;20194;-43
2021/05/17 08:50:37;;;;;;;1.43;1.00;;;17.60;48.10;;;;;;5012934;28;20433;-44
2021/05/17 08:53:03;;;;;;;2.77;1.07;;;17.90;46.40;;;;;;5012090;28;20516;-45
2021/05/17 08:55:29;;;;;;;1.33;0.67;;;18.00;47.10;;;;;;4994849;28;20521;-43
2021/05/17 08:57:55;;;;;;;1.13;0.70;;;18.20;45.80;;;;;;5001018;28;20583;-42
2021/05/17 09:00:22;;;;;;;2.33;0.70;;;18.40;45.60;;;;;;5010631;28;20186;-46
2021/05/17 09:02:48;;;;;;;2.60;0.97;;;18.50;45.50;;;;;;5012280;28;20209;-43
2021/05/17 09:05:26;;;;;;;4.00;0.80;;;18.80;45.60;;;;;;5008814;28;20437;-43
2021/05/17 09:07:55;;;;;;;0.70;0.60;;;18.50;44.80;;;;;;4991930;28;20474;-43
2021/05/17 09:10:35;;;;;;;1.83;1.33;;;18.30;45.50;;;;;;5003696;28;20437;-44
2021/05/17 09:13:09;;;;;;;1.27;0.70;;;18.40;45.30;;;;;;5008449;28;20433;-43
2021/05/17 09:15:45;;;;;;;4.63;0.87;;;18.80;45.70;;;;;;4999127;28;20443;-44
2021/05/17 09:18:19;;;;;;;0.73;0.63;;;18.80;44.90;;;;;;4999878;28;20489;-43
2021/05/17 09:20:50;;;;;;;1.17;0.60;;;18.60;44.50;;;;;;5004133;28;20532;-43
2021/05/17 09:23:23;;;;;;;0.70;0.60;;;18.80;45.20;;;;;;4998750;28;20440;-43
2021/05/17 09:26:10;;;;;;;0.93;0.93;;;18.60;44.50;;;;;;5003254;28;20449;-43
2021/05/17 09:28:39;;;;;;;0.97;0.70;;;18.30;45.00;;;;;;5005552;28;20448;-45
2021/05/17 09:31:12;;;;;;;1.10;0.60;;;18.40;45.90;;;;;;5002382;28;20523;-44
2021/05/17 09:33:50;;;;;;;1.40;0.63;;;18.50;46.00;;;;;;5007699;28;20422;-42
2021/05/17 09:36:35;;;;;;;1.30;0.73;;;18.60;45.70;;;;;;5013778;28;20448;-50
2021/05/17 09:39:05;;;;;;;2.60;0.80;;;18.50;45.90;;;;;;5010131;28;20516;-50
2021/05/17 09:41:59;;;;;;;0.87;0.57;;;18.50;49.00;;;;;;5010312;28;20448;-47
2021/05/17 09:44:29;;;;;;;1.83;0.80;;;18.30;50.70;;;;;;5008895;28;20909;-49
2021/05/17 09:47:13;;;;;;;1.00;0.60;;;18.10;52.00;;;;;;5009474;28;20429;-49
2021/05/17 09:49:42;;;;;;;1.60;0.60;;;18.00;53.20;;;;;;5005087;28;21036;-47
2021/05/17 09:52:24;;;;;;;1.30;0.90;;;18.00;53.90;;;;;;5006086;28;20442;-48
2021/05/17 09:55:04;;;;;;;1.10;0.70;;;18.20;53.60;;;;;;5004850;28;20816;-47
2021/05/17 09:57:39;;;;;;;1.43;0.80;;;18.40;54.00;;;;;;5004335;28;20476;-45
2021/05/17 10:00:16;;;;;;;1.03;0.70;;;19.00;54.70;;;;;;5010101;28;20444;-46
2021/05/17 10:02:46;;;;;;;1.70;0.60;;;19.40;54.30;;;;;;5010888;28;20437;-45
2021/05/17 10:05:15;;;;;;;1.00;0.60;;;19.50;52.00;;;;;;4998171;28;20459;-46
2021/05/17 10:07:42;;;;;;;0.60;0.60;;;19.50;48.70;;;;;;5004074;28;20449;-45
2021/05/17 10:10:09;;;;;;;1.00;0.70;;;19.30;47.40;;;;;;5009744;28;20444;-45
2021/05/17 10:12:34;;;;;;;3.00;0.87;;;18.80;47.20;;;;;;5011248;28;20448;-45
2021/05/17 10:15:01;;;;;;;1.30;0.80;;;18.80;48.70;;;;;;5011322;28;20441;-46
2021/05/17 10:17:27;;;;;;;3.07;0.87;;;18.90;48.70;;;;;;5011405;28;20590;-45
2021/05/17 10:19:53;;;;;;;1.40;0.80;;;18.70;48.70;;;;;;5012415;28;20440;-45
2021/05/17 10:22:18;;;;;;;1.57;1.00;;;18.70;48.90;;;;;;5011961;28;21088;-45
2021/05/17 10:24:44;;;;;;;0.90;0.70;;;18.70;48.90;;;;;;5009363;28;20419;-46
2021/05/17 10:27:10;;;;;;;0.60;0.50;;;18.50;48.60;;;;;;5011550;28;20221;-45
2021/05/17 10:29:38;;;;;;;1.27;0.70;;;18.60;48.00;;;;;;5011698;28;20225;-45
2021/05/17 10:32:07;;;;;;;1.40;0.60;;;18.80;47.60;;;;;;5010062;28;20441;-46
2021/05/17 10:34:49;;;;;;;2.63;0.90;;;19.20;47.80;;;;;;5013661;28;20567;-46
2021/05/17 10:37:20;;;;;;;3.03;1.70;;;19.40;47.00;;;;;;5014029;28;20534;-46
2021/05/17 10:39:52;;;;;;;1.80;0.60;;;19.60;46.50;;;;;;5020079;28;20484;-46
2021/05/17 10:48:16;;;;;;;1.60;0.90;;;20.10;44.70;;;;;;5006578;28;20201;-45
2021/05/17 10:50:43;;;;;;;0.80;0.80;;;20.30;44.40;;;;;;5007100;28;20437;-45
2021/05/17 10:53:49;;;;;;;1.60;1.13;;;20.00;45.00;;;;;;5007421;28;20436;-49
2021/05/17 10:56:18;;;;;;;4.00;0.80;;;19.60;47.40;;;;;;5014962;28;20798;-44
2021/05/17 11:01:52;;;;;;;1.27;0.60;;;18.60;54.80;;;;;;5007930;28;20947;-45
2021/05/17 11:04:27;;;;;;;0.60;0.60;;;18.20;53.80;;;;;;5009658;28;20444;-46
2021/05/17 11:07:32;;;;;;;1.87;0.80;;;17.80;54.60;;;;;;5011638;28;20845;-45
2021/05/17 11:10:09;;;;;;;1.83;0.70;;;17.80;56.70;;;;;;5008487;28;20443;-45
2021/05/17 11:12:37;;;;;;;2.80;0.80;;;17.90;59.40;;;;;;5008232;28;20495;-47
2021/05/17 11:15:13;;;;;;;4.77;0.80;;;18.00;59.60;;;;;;5009266;28;20448;-48
2021/05/17 11:18:06;;;;;;;1.13;0.67;;;18.20;61.40;;;;;;5010099;28;20476;-46
2021/05/17 11:20:45;;;;;;;1.57;0.90;;;18.50;58.40;;;;;;5011501;28;20449;-49
2021/05/17 11:23:14;;;;;;;0.87;0.70;;;18.80;60.70;;;;;;5006581;28;20440;-48
2021/05/17 11:31:15;;;;;;;3.03;0.90;;;19.30;56.00;;;;;;5008556;28;20467;-49
2021/05/17 11:34:06;;;;;;;1.33;0.70;;;19.50;55.60;;;;;;5008075;28;20454;-48
2021/05/17 11:36:47;;;;;;;2.53;0.80;;;19.40;54.60;;;;;;5008430;28;20448;-49
2021/05/17 11:39:19;;;;;;;0.70;0.60;;;19.10;53.40;;;;;;5008692;28;20532;-49
2021/05/17 11:41:45;;;;;;;1.90;0.77;;;18.90;51.30;;;;;;5012575;28;20854;-49
2021/05/17 11:44:15;;;;;;;0.90;0.57;;;18.60;52.20;;;;;;5013162;28;20524;-49
2021/05/17 11:46:56;;;;;;;2.47;0.93;;;18.40;53.10;;;;;;5010002;28;20425;-48
2021/05/17 11:49:24;;;;;;;1.27;0.80;;;18.90;54.90;;;;;;5000291;28;20448;-49
2021/05/17 11:51:55;;;;;;;3.07;0.70;;;19.00;55.50;;;;;;5008259;28;20571;-49
2021/05/17 11:54:22;;;;;;;1.70;0.70;;;19.00;54.90;;;;;;5008330;28;20780;-49
2021/05/17 11:56:57;;;;;;;1.50;0.90;;;19.20;55.90;;;;;;5007445;28;20437;-48
2021/05/17 11:59:27;;;;;;;1.67;0.70;;;19.30;55.30;;;;;;5009865;28;20468;-49
2021/05/17 12:02:02;;;;;;;1.87;0.77;;;19.50;55.50;;;;;;5008673;28;20436;-47
2021/05/17 12:04:46;;;;;;;0.57;0.53;;;19.50;55.70;;;;;;5012024;28;20428;-45
2021/05/17 12:07:16;;;;;;;0.80;0.80;;;19.50;56.40;;;;;;5011437;28;20447;-44
2021/05/17 12:09:52;;;;;;;2.20;1.10;;;19.60;58.50;;;;;;5009655;28;20433;-44
2021/05/17 12:12:26;;;;;;;0.90;0.63;;;19.70;59.60;;;;;;5009757;28;20555;-44
2021/05/17 12:15:04;;;;;;;1.93;0.77;;;19.90;57.30;;;;;;5013184;28;20440;-46
2021/05/17 12:17:35;;;;;;;1.23;0.80;;;20.20;56.70;;;;;;4997339;28;20497;-45
2021/05/17 12:20:10;;;;;;;2.17;0.73;;;20.60;55.70;;;;;;5012953;28;20479;-45
2021/05/17 12:22:43;;;;;;;1.07;0.70;;;20.80;54.60;;;;;;5018007;28;20440;-46
2021/05/17 12:25:17;;;;;;;2.03;1.10;;;20.90;52.90;;;;;;5011226;28;20823;-44
2021/05/17 12:27:44;;;;;;;1.30;0.70;;;20.90;51.50;;;;;;5013100;28;20444;-47
2021/05/17 12:30:17;;;;;;;3.27;0.70;;;20.80;52.20;;;;;;5018284;28;20432;-46
2021/05/17 12:32:54;;;;;;;2.30;0.63;;;20.60;51.60;;;;;;5014483;28;20443;-45
2021/05/17 12:35:35;;;;;;;1.40;0.60;;;19.90;49.70;;;;;;5008611;28;20477;-45
2021/05/17 12:38:12;;;;;;;4.73;0.57;;;19.60;50.20;;;;;;5016287;28;20479;-47
2021/05/17 12:40:40;;;;;;;0.60;0.40;;;19.70;49.20;;;;;;5015042;28;20441;-46
2021/05/17 12:43:18;;;;;;;0.50;0.50;;;19.60;47.00;;;;;;5008876;28;20425;-46
2021/05/17 12:45:46;;;;;;;0.50;0.40;;;19.20;48.10;;;;;;5010950;28;20817;-45
2021/05/17 12:48:22;;;;;;;0.50;0.40;;;19.20;48.10;;;;;;5014747;28;20441;-46
2021/05/17 12:50:51;;;;;;;1.37;0.50;;;19.10;46.60;;;;;;5014812;28;22210;-49
2021/05/17 12:53:19;;;;;;;0.80;0.70;;;19.20;47.80;;;;;;5015323;28;20428;-47
2021/05/17 12:55:47;;;;;;;0.77;0.60;;;19.30;47.60;;;;;;5013723;28;20475;-45
2021/05/17 12:58:24;;;;;;;0.67;0.50;;;18.90;45.00;;;;;;5012592;28;20992;-46
2021/05/17 13:00:54;;;;;;;0.77;0.50;;;18.80;45.80;;;;;;5009330;28;20440;-46
2021/05/17 13:03:27;;;;;;;0.50;0.50;;;18.60;46.30;;;;;;5005658;28;20453;-46
2021/05/17 13:05:57;;;;;;;0.50;0.50;;;18.80;46.60;;;;;;5012935;28;20448;-46
2021/05/17 13:08:35;;;;;;;0.83;0.60;;;18.80;45.20;;;;;;5014229;28;20439;-47
2021/05/17 13:11:04;;;;;;;1.00;0.60;;;19.10;45.70;;;;;;5017445;28;20417;-46
2021/05/17 13:13:48;;;;;;;0.97;0.50;;;19.10;45.20;;;;;;5021701;28;20532;-49
2021/05/17 13:16:22;;;;;;;0.50;0.50;;;19.30;45.40;;;;;;5012667;28;20425;-46
2021/05/17 13:19:05;;;;;;;0.50;0.50;;;19.20;44.50;;;;;;5010219;28;20487;-46
2021/05/17 13:21:53;;;;;;;0.73;0.60;;;19.30;45.50;;;;;;5011813;28;20447;-46
2021/05/17 13:32:38;;;;;;;0.60;0.50;;;19.70;44.90;;;;;;5011400;28;20429;-47
2021/05/17 13:35:10;;;;;;;1.80;0.57;;;20.00;44.70;;;;;;5012361;28;20849;-46
2021/05/17 13:37:36;;;;;;;1.33;0.53;;;20.20;43.80;;;;;;5007644;28;20975;-48
2021/05/17 13:40:04;;;;;;;1.63;0.63;;;20.10;42.10;;;;;;5008627;28;20524;-47
2021/05/17 13:42:30;;;;;;;0.77;0.53;;;20.10;42.20;;;;;;5009517;28;20490;-46
2021/05/17 13:44:56;;;;;;;0.93;0.50;;;19.60;41.90;;;;;;5013035;28;20441;-49